createdAt,value
2023-10-02T00:02:39.340Z,94.83
2023-10-02T00:05:08.977Z,95.34
2023-10-02T00:07:38.497Z,95.28
2023-10-02T00:10:06.866Z,95.12
2023-10-02T00:12:36.275Z,95.34
2023-10-02T00:15:13.479Z,96.06
2023-10-02T00:17:46.120Z,95.80
2023-10-02T00:20:22.728Z,95.17
2023-10-02T00:22:53.872Z,95.11
2023-10-02T00:25:23.604Z,95.16
2023-10-02T00:27:53.801Z,96.07
2023-10-02T00:30:23.796Z,95.89
2023-10-02T00:32:53.115Z,96.19
2023-10-02T00:35:23.807Z,95.95
2023-10-02T00:37:56.722Z,96.34
2023-10-02T00:40:30.103Z,96.47
2023-10-02T00:43:00.825Z,96.47
2023-10-02T00:45:31.224Z,96.54
2023-10-02T00:48:17.870Z,96.20
2023-10-02T00:50:55.722Z,96.58
2023-10-02T00:53:40.820Z,96.39
2023-10-02T00:56:22.719Z,95.52
2023-10-02T00:59:16.336Z,96.39
2023-10-02T01:01:43.684Z,96.30
2023-10-02T01:04:12.308Z,96.54
2023-10-02T01:07:18.325Z,96.77
2023-10-02T01:10:06.098Z,97.18
2023-10-02T01:12:44.618Z,96.76
2023-10-02T01:15:13.433Z,96.76
2023-10-02T01:17:51.611Z,96.88
2023-10-02T01:20:22.900Z,96.76
2023-10-02T01:22:53.924Z,96.82
2023-10-02T01:25:25.075Z,96.73
2023-10-02T01:27:56.877Z,96.17
2023-10-02T01:33:13.568Z,96.68
2023-10-02T01:35:49.782Z,97.17
2023-10-02T01:38:32.065Z,97.11
2023-10-02T01:41:09.753Z,97.22
2023-10-02T01:43:45.602Z,97.40
2023-10-02T01:46:20.157Z,97.63
2023-10-02T01:48:50.402Z,97.29
2023-10-02T01:51:27.440Z,97.22
2023-10-02T01:54:17.072Z,97.18
2023-10-02T01:56:48.421Z,97.51
2023-10-02T01:59:21.009Z,97.39
2023-10-02T02:01:58.793Z,96.91
2023-10-02T02:04:34.965Z,97.17
2023-10-02T02:07:03.824Z,97.63
2023-10-02T02:09:34.553Z,97.93
2023-10-02T02:12:07.270Z,98.21
2023-10-02T02:14:54.251Z,98.34
2023-10-02T02:17:27.472Z,97.17
2023-10-02T02:20:12.596Z,97.39
2023-10-02T02:22:40.228Z,97.54
2023-10-02T02:25:07.822Z,97.62
2023-10-02T02:27:35.034Z,97.25
2023-10-02T02:30:11.753Z,97.27
2023-10-02T02:32:45.875Z,96.46
2023-10-02T02:35:16.532Z,96.98
2023-10-02T02:37:45.408Z,96.85
2023-10-02T02:40:27.250Z,96.76
2023-10-02T02:42:57.999Z,97.15
2023-10-02T02:45:31.260Z,96.93
2023-10-02T02:48:08.830Z,96.86
2023-10-02T02:50:43.946Z,96.80
2023-10-02T02:53:24.124Z,97.02
2023-10-02T02:56:31.751Z,96.19
2023-10-02T02:58:59.701Z,95.69
2023-10-02T03:01:30.993Z,95.60
2023-10-02T03:04:01.008Z,95.95
2023-10-02T03:06:29.091Z,95.53
2023-10-02T03:08:59.268Z,95.36
2023-10-02T03:11:30.534Z,94.98
2023-10-02T03:14:18.326Z,95.19
2023-10-02T03:16:47.246Z,95.12
2023-10-02T03:19:17.702Z,94.98
2023-10-02T03:21:45.028Z,95.41
2023-10-02T03:24:20.493Z,95.89
2023-10-02T03:26:54.460Z,95.51
2023-10-02T03:29:23.851Z,95.33
2023-10-02T03:31:52.621Z,94.84
2023-10-02T03:34:36.031Z,93.79
2023-10-02T03:37:15.811Z,94.15
2023-10-02T03:40:02.961Z,94.14
2023-10-02T03:42:37.608Z,94.28
2023-10-02T03:45:06.415Z,94.31
2023-10-02T03:47:37.660Z,94.33
2023-10-02T03:50:14.064Z,94.53
2023-10-02T03:52:47.197Z,94.12
2023-10-02T03:55:17.042Z,93.08
2023-10-02T03:57:57.032Z,93.27
2023-10-02T04:00:29.401Z,92.69
2023-10-02T04:02:59.090Z,91.80
2023-10-02T04:05:45.774Z,92.36
2023-10-02T04:08:23.894Z,93.12
2023-10-02T04:10:58.496Z,93.14
2023-10-02T04:13:33.444Z,93.59
2023-10-02T04:16:20.835Z,92.45
2023-10-02T04:18:48.161Z,92.59
2023-10-02T04:21:21.237Z,93.21
2023-10-02T04:23:48.289Z,93.20
2023-10-02T04:26:21.192Z,92.76
2023-10-02T04:29:11.838Z,93.65
2023-10-02T04:31:42.740Z,93.77
2023-10-02T04:34:17.323Z,92.96
2023-10-02T04:36:45.423Z,93.85
2023-10-02T04:39:32.819Z,94.63
2023-10-02T04:42:11.511Z,93.90
2023-10-02T04:44:49.053Z,94.18
2023-10-02T04:47:21.158Z,94.31
2023-10-02T04:50:05.620Z,93.51
2023-10-02T04:52:55.338Z,93.34
2023-10-02T04:55:26.108Z,93.82
2023-10-02T04:58:04.201Z,94.14
2023-10-02T05:00:34.491Z,94.35
2023-10-02T05:03:25.460Z,93.88
2023-10-02T05:05:56.951Z,94.11
2023-10-02T05:08:35.210Z,93.51
2023-10-02T05:11:07.795Z,93.76
2023-10-02T05:13:46.718Z,91.03
2023-10-02T05:16:14.405Z,89.39
2023-10-02T05:18:48.728Z,89.87
2023-10-02T05:21:18.849Z,90.61
2023-10-02T05:24:01.830Z,91.30
2023-10-02T05:26:40.684Z,91.78
2023-10-02T05:29:11.359Z,92.35
2023-10-02T05:31:42.547Z,92.62
2023-10-02T05:34:23.932Z,92.54
2023-10-02T05:37:04.627Z,92.69
2023-10-02T05:39:41.498Z,91.91
2023-10-02T05:42:15.918Z,91.68
2023-10-02T05:44:45.662Z,91.47
2023-10-02T05:47:17.162Z,91.02
2023-10-02T05:49:49.532Z,91.38
2023-10-02T05:52:22.183Z,91.06
2023-10-02T05:54:55.280Z,90.97
2023-10-02T05:57:33.642Z,90.00
2023-10-02T06:00:01.759Z,90.12
2023-10-02T06:02:29.471Z,90.36
2023-10-02T06:05:08.941Z,90.29
2023-10-02T06:07:45.564Z,90.20
2023-10-02T06:10:28.066Z,90.12
2023-10-02T06:13:05.183Z,90.03
2023-10-02T06:15:49.653Z,89.89
2023-10-02T06:18:28.756Z,89.93
2023-10-02T06:21:02.468Z,89.65
2023-10-02T06:23:38.777Z,89.27
2023-10-02T06:26:12.207Z,88.72
2023-10-02T06:28:40.718Z,89.14
2023-10-02T06:31:08.189Z,89.13
2023-10-02T06:33:39.652Z,88.88
2023-10-02T06:36:10.694Z,88.47
2023-10-02T06:38:38.031Z,87.92
2023-10-02T06:41:16.797Z,87.68
2023-10-02T06:43:43.944Z,87.40
2023-10-02T06:46:17.301Z,86.47
2023-10-02T06:48:45.158Z,86.51
2023-10-02T06:51:16.097Z,85.41
2023-10-02T06:53:44.706Z,84.05
2023-10-02T06:56:14.651Z,84.53
2023-10-02T06:58:55.901Z,84.51
2023-10-02T07:01:28.622Z,84.41
2023-10-02T07:03:58.096Z,84.26
2023-10-02T07:06:26.044Z,84.00
2023-10-02T07:09:13.538Z,83.60
2023-10-02T07:11:45.121Z,82.69
2023-10-02T07:14:12.700Z,80.69
2023-10-02T07:16:40.132Z,80.64
2023-10-02T07:19:08.065Z,81.14
2023-10-02T07:21:37.068Z,81.59
2023-10-02T07:24:05.503Z,81.51
2023-10-02T07:26:52.799Z,79.69
2023-10-02T07:29:20.865Z,78.34
2023-10-02T07:31:48.769Z,78.74
2023-10-02T07:34:17.740Z,77.84
2023-10-02T07:36:47.700Z,76.86
2023-10-02T07:39:38.723Z,73.89
2023-10-02T07:42:10.695Z,73.12
2023-10-02T07:44:40.389Z,73.18
2023-10-02T07:47:12.041Z,71.69
2023-10-02T07:49:41.334Z,72.41
2023-10-02T07:52:13.208Z,71.56
2023-10-02T07:54:45.906Z,71.34
2023-10-02T07:57:15.886Z,71.38
2023-10-02T07:59:44.672Z,69.99
2023-10-02T08:02:38.731Z,66.18
2023-10-02T08:05:06.651Z,64.54
2023-10-02T08:07:37.442Z,62.54
2023-10-02T08:10:12.072Z,61.90
2023-10-02T08:12:55.932Z,60.49
2023-10-02T08:15:34.244Z,61.10
2023-10-02T08:18:05.380Z,62.11
2023-10-02T08:20:33.631Z,60.68
2023-10-02T08:23:03.563Z,59.77
2023-10-02T08:25:34.580Z,60.64
2023-10-02T08:28:01.683Z,61.40
2023-10-02T08:30:33.039Z,59.45
2023-10-02T08:33:12.602Z,61.01
2023-10-02T08:35:54.127Z,61.05
2023-10-02T08:38:24.515Z,59.75
2023-10-02T08:41:04.648Z,61.43
2023-10-02T08:43:45.580Z,61.24
2023-10-02T08:46:20.489Z,60.31
2023-10-02T08:48:56.275Z,60.06
2023-10-02T08:51:30.443Z,59.90
2023-10-02T08:54:06.683Z,59.28
2023-10-02T08:56:45.095Z,59.75
2023-10-02T08:59:29.022Z,58.06
2023-10-02T09:02:18.267Z,58.47
2023-10-02T09:05:11.597Z,57.84
2023-10-02T09:07:58.096Z,57.81
2023-10-02T09:10:28.087Z,55.67
2023-10-02T09:13:11.572Z,55.52
2023-10-02T09:15:38.721Z,55.14
2023-10-02T09:18:23.760Z,53.69
2023-10-02T09:20:55.692Z,53.13
2023-10-02T09:23:26.306Z,52.07
2023-10-02T09:26:26.729Z,50.40
2023-10-02T09:29:02.924Z,49.49
2023-10-02T09:31:36.416Z,48.51
2023-10-02T09:34:41.951Z,47.56
2023-10-02T09:37:52.100Z,47.13
2023-10-02T09:40:02.035Z,47.17
2023-10-02T09:42:34.622Z,46.08
2023-10-02T09:45:10.692Z,44.67
2023-10-02T09:47:47.750Z,45.34
2023-10-02T09:50:31.251Z,45.45
2023-10-02T09:53:10.317Z,44.42
2023-10-02T09:56:07.780Z,42.72
2023-10-02T09:59:14.155Z,42.25
2023-10-02T10:01:41.695Z,40.71
2023-10-02T10:04:28.771Z,40.29
2023-10-02T10:07:10.987Z,39.83
2023-10-02T10:09:54.686Z,39.60
2023-10-02T10:12:56.073Z,39.52
2023-10-02T10:15:27.869Z,38.49
2023-10-02T10:17:57.943Z,38.16
2023-10-02T10:20:28.923Z,37.58
2023-10-02T10:22:56.803Z,36.71
2023-10-02T10:25:24.524Z,37.21
2023-10-02T10:27:56.255Z,36.85
2023-10-02T10:30:26.457Z,36.28
2023-10-02T10:33:15.429Z,35.63
2023-10-02T10:35:51.246Z,34.67
2023-10-02T10:38:28.140Z,34.77
2023-10-02T10:41:03.384Z,35.61
2023-10-02T10:43:51.212Z,35.27
2023-10-02T10:46:18.298Z,35.21
2023-10-02T10:49:09.986Z,35.79
2023-10-02T10:51:40.941Z,35.44
2023-10-02T10:54:14.781Z,34.90
2023-10-02T10:56:57.160Z,34.40
2023-10-02T10:59:26.264Z,34.92
2023-10-02T11:02:11.314Z,34.67
2023-10-02T11:04:41.797Z,34.97
2023-10-02T11:07:21.144Z,35.45
2023-10-02T11:10:16.321Z,35.49
2023-10-02T11:12:57.991Z,34.89
2023-10-02T11:15:47.827Z,35.57
2023-10-02T11:18:24.664Z,35.98
2023-10-02T11:20:58.511Z,35.61
2023-10-02T11:23:41.802Z,35.91
2023-10-02T11:26:13.964Z,36.37
2023-10-02T11:28:44.235Z,37.42
2023-10-02T11:31:33.487Z,37.33
2023-10-02T11:36:54.259Z,37.61
2023-10-02T11:39:21.819Z,36.84
2023-10-02T11:41:49.311Z,37.30
2023-10-02T11:44:16.767Z,37.79
2023-10-02T11:46:47.518Z,37.18
2023-10-02T11:49:14.605Z,36.91
2023-10-02T11:51:42.585Z,36.79
2023-10-02T11:54:15.221Z,37.05
2023-10-02T11:56:44.689Z,37.47
2023-10-02T11:59:16.122Z,38.16
2023-10-02T12:01:48.140Z,38.13
2023-10-02T12:04:16.377Z,38.95
2023-10-02T12:06:43.759Z,38.60
2023-10-02T12:09:19.454Z,38.22
2023-10-02T12:11:46.976Z,38.96
2023-10-02T12:14:14.195Z,38.41
2023-10-02T12:16:42.294Z,38.64
2023-10-02T12:19:11.884Z,39.02
2023-10-02T12:21:39.102Z,38.86
2023-10-02T12:24:08.827Z,39.67
2023-10-02T12:26:36.280Z,39.33
2023-10-02T12:29:04.006Z,39.51
2023-10-02T12:31:35.394Z,39.71
2023-10-02T12:34:02.534Z,40.19
2023-10-02T12:36:30.048Z,40.42
2023-10-02T12:38:58.910Z,41.58
2023-10-02T12:41:32.185Z,41.42
2023-10-02T12:43:59.903Z,42.12
2023-10-02T12:46:33.633Z,42.14
2023-10-02T12:49:02.121Z,41.92
2023-10-02T12:51:31.401Z,42.14
2023-10-02T12:53:58.528Z,43.16
2023-10-02T12:56:25.847Z,44.17
2023-10-02T12:58:56.485Z,43.54
2023-10-02T13:01:28.441Z,43.65
2023-10-02T13:03:57.247Z,44.15
2023-10-02T13:06:27.860Z,44.13
2023-10-02T13:09:02.918Z,44.36
2023-10-02T13:11:30.502Z,43.95
2023-10-02T13:13:57.637Z,43.97
2023-10-02T13:16:25.537Z,44.88
2023-10-02T13:18:52.799Z,45.17
2023-10-02T13:21:20.384Z,44.91
2023-10-02T13:23:50.118Z,45.46
2023-10-02T13:26:17.987Z,45.45
2023-10-02T13:28:53.659Z,45.15
2023-10-02T13:31:21.218Z,45.08
2023-10-02T13:33:53.174Z,45.29
2023-10-02T13:36:23.612Z,45.34
2023-10-02T13:38:51.711Z,45.71
2023-10-02T13:41:20.233Z,46.08
2023-10-02T13:43:50.870Z,46.23
2023-10-02T13:46:18.494Z,46.66
2023-10-02T13:48:46.444Z,47.17
2023-10-02T13:51:15.144Z,47.06
2023-10-02T13:53:43.325Z,46.99
2023-10-02T13:56:19.675Z,46.50
2023-10-02T13:58:49.542Z,46.90
2023-10-02T14:01:21.006Z,46.95
2023-10-02T14:03:51.446Z,46.77
2023-10-02T14:06:21.466Z,46.80
2023-10-02T14:08:50.987Z,46.84
2023-10-02T14:11:24.017Z,46.93
2023-10-02T14:13:52.908Z,47.29
2023-10-02T14:16:22.489Z,47.99
2023-10-02T14:18:53.572Z,47.36
2023-10-02T14:21:22.928Z,47.61
2023-10-02T14:23:53.922Z,48.82
2023-10-02T14:26:25.986Z,48.81
2023-10-02T14:28:54.714Z,49.68
2023-10-02T14:31:33.025Z,48.64
2023-10-02T14:34:02.446Z,49.19
2023-10-02T14:36:30.757Z,49.25
2023-10-02T14:38:59.815Z,50.30
2023-10-02T14:41:28.857Z,50.88
2023-10-02T14:43:58.515Z,50.87
2023-10-02T14:46:25.939Z,50.41
2023-10-02T14:48:54.652Z,50.65
2023-10-02T14:51:23.810Z,51.01
2023-10-02T14:53:51.137Z,51.57
2023-10-02T14:56:18.194Z,51.66
2023-10-02T14:58:48.973Z,52.08
2023-10-02T15:01:19.239Z,52.53
2023-10-02T15:03:49.295Z,52.61
2023-10-02T15:06:16.815Z,53.37
2023-10-02T15:08:43.957Z,53.26
2023-10-02T15:11:16.690Z,53.82
2023-10-02T15:13:44.549Z,53.91
2023-10-02T15:16:16.920Z,54.70
2023-10-02T15:18:47.495Z,55.41
2023-10-02T15:21:18.118Z,55.95
2023-10-02T15:23:46.121Z,55.51
2023-10-02T15:26:13.278Z,56.22
2023-10-02T15:28:40.785Z,56.14
2023-10-02T15:31:09.053Z,56.17
2023-10-02T15:33:37.952Z,56.83
2023-10-02T15:36:05.837Z,57.02
2023-10-02T15:38:33.121Z,57.32
2023-10-02T15:41:05.078Z,58.19
2023-10-02T15:43:32.832Z,58.89
2023-10-02T15:46:00.503Z,58.81
2023-10-02T15:48:27.905Z,59.22
2023-10-02T15:50:55.664Z,59.81
2023-10-02T15:53:25.624Z,59.90
2023-10-02T15:55:53.450Z,60.33
2023-10-02T15:58:20.622Z,61.10
2023-10-02T16:00:50.752Z,61.04
2023-10-02T16:03:18.356Z,61.33
2023-10-02T16:05:48.144Z,61.96
2023-10-02T16:08:15.486Z,62.45
2023-10-02T16:10:42.637Z,62.46
2023-10-02T16:13:09.843Z,62.99
2023-10-02T16:15:37.091Z,63.65
2023-10-02T16:18:07.102Z,63.92
2023-10-02T16:20:36.424Z,64.27
2023-10-02T16:23:03.788Z,64.93
2023-10-02T16:25:32.676Z,65.66
2023-10-02T16:28:01.475Z,66.10
2023-10-02T16:30:28.844Z,66.38
2023-10-02T16:32:56.809Z,66.64
2023-10-02T16:35:32.287Z,66.15
2023-10-02T16:38:03.564Z,66.32
2023-10-02T16:40:33.382Z,66.04
2023-10-02T16:43:06.972Z,68.00
2023-10-02T16:45:34.496Z,68.28
2023-10-02T16:48:04.029Z,68.59
2023-10-02T16:50:32.644Z,68.47
2023-10-02T16:52:59.984Z,69.11
2023-10-02T16:55:28.793Z,69.21
2023-10-02T16:57:57.773Z,68.51
2023-10-02T17:00:26.865Z,69.69
2023-10-02T17:02:54.652Z,69.68
2023-10-02T17:05:21.970Z,69.44
2023-10-02T17:07:51.757Z,68.96
2023-10-02T17:10:23.696Z,70.10
2023-10-02T17:12:55.438Z,70.15
2023-10-02T17:15:23.336Z,71.41
2023-10-02T17:17:51.292Z,71.86
2023-10-02T17:20:22.433Z,71.71
2023-10-02T17:22:51.129Z,71.62
2023-10-02T17:25:27.786Z,71.69
2023-10-02T17:28:02.318Z,71.93
2023-10-02T17:30:32.843Z,72.45
2023-10-02T17:33:03.339Z,72.40
2023-10-02T17:35:30.945Z,72.10
2023-10-02T17:37:58.360Z,72.47
2023-10-02T17:40:25.925Z,72.91
2023-10-02T17:42:56.971Z,72.00
2023-10-02T17:45:24.260Z,72.77
2023-10-02T17:47:51.960Z,72.95
2023-10-02T17:50:22.512Z,73.59
2023-10-02T17:52:50.723Z,73.71
2023-10-02T17:55:17.947Z,73.89
2023-10-02T17:57:46.813Z,74.25
2023-10-02T18:00:15.395Z,72.83
2023-10-02T18:02:42.985Z,73.18
2023-10-02T18:05:11.868Z,74.55
2023-10-02T18:07:40.160Z,73.41
2023-10-02T18:10:10.107Z,74.36
2023-10-02T18:12:37.606Z,74.45
2023-10-02T18:15:10.454Z,74.43
2023-10-02T18:17:38.445Z,75.45
2023-10-02T18:20:06.624Z,75.41
2023-10-02T18:22:34.005Z,76.38
2023-10-02T18:25:04.799Z,76.75
2023-10-02T18:27:33.468Z,76.09
2023-10-02T18:30:00.578Z,76.60
2023-10-02T18:32:28.289Z,76.80
2023-10-02T18:34:55.662Z,77.96
2023-10-02T18:37:23.022Z,77.38
2023-10-02T18:39:50.273Z,77.29
2023-10-02T18:42:19.362Z,76.10
2023-10-02T18:44:47.000Z,76.28
2023-10-02T18:47:21.381Z,76.39
2023-10-02T18:49:52.069Z,75.94
2023-10-02T18:52:19.316Z,75.74
2023-10-02T18:54:46.616Z,75.32
2023-10-02T18:57:15.068Z,75.34
2023-10-02T18:59:42.455Z,75.23
2023-10-02T19:02:10.635Z,75.43
2023-10-02T19:04:37.991Z,75.70
2023-10-02T19:07:05.189Z,76.06
2023-10-02T19:09:32.298Z,75.63
2023-10-02T19:11:59.534Z,75.61
2023-10-02T19:14:27.208Z,76.12
2023-10-02T19:16:54.420Z,75.90
2023-10-02T19:19:21.731Z,76.03
2023-10-02T19:21:48.899Z,76.58
2023-10-02T19:24:16.074Z,76.32
2023-10-02T19:26:43.626Z,76.63
2023-10-02T19:29:11.065Z,77.46
2023-10-02T19:31:38.462Z,78.02
2023-10-02T19:34:06.450Z,78.84
2023-10-02T19:36:34.569Z,79.36
2023-10-02T19:39:05.782Z,78.95
2023-10-02T19:41:33.601Z,79.50
2023-10-02T19:44:00.936Z,79.95
2023-10-02T19:46:29.061Z,80.24
2023-10-02T19:48:56.175Z,80.31
2023-10-02T19:51:24.752Z,79.97
2023-10-02T19:53:53.866Z,80.05
2023-10-02T19:56:21.348Z,79.53
2023-10-02T19:58:48.592Z,80.13
2023-10-02T20:01:15.813Z,80.20
2023-10-02T20:03:43.006Z,80.26
2023-10-02T20:06:12.021Z,79.98
2023-10-02T20:08:40.571Z,80.01
2023-10-02T20:11:08.290Z,80.84
2023-10-02T20:13:36.647Z,80.17
2023-10-02T20:16:05.169Z,80.67
2023-10-02T20:18:32.495Z,80.77
2023-10-02T20:21:00.046Z,81.23
2023-10-02T20:23:41.165Z,81.17
2023-10-02T20:26:13.307Z,81.64
2023-10-02T20:28:40.630Z,81.13
2023-10-02T20:31:12.439Z,81.72
2023-10-02T20:33:40.661Z,80.92
2023-10-02T20:36:09.269Z,81.56
2023-10-02T20:38:36.514Z,80.76
2023-10-02T20:41:03.806Z,80.91
2023-10-02T20:43:31.097Z,81.56
2023-10-02T20:45:58.365Z,81.58
2023-10-02T20:48:25.539Z,81.33
2023-10-02T20:50:52.747Z,81.31
2023-10-02T20:53:20.037Z,81.65
2023-10-02T20:55:55.423Z,81.45
2023-10-02T20:58:23.976Z,81.51
2023-10-02T21:00:51.402Z,82.12
2023-10-02T21:03:18.599Z,82.37
2023-10-02T21:05:45.981Z,82.40
2023-10-02T21:08:15.253Z,82.69
2023-10-02T21:10:42.576Z,82.33
2023-10-02T21:13:09.834Z,82.23
2023-10-02T21:15:37.152Z,82.74
2023-10-02T21:18:06.762Z,82.41
2023-10-02T21:20:34.813Z,82.81
2023-10-02T21:23:04.400Z,82.79
2023-10-02T21:25:31.450Z,82.04
2023-10-02T21:27:58.689Z,82.74
2023-10-02T21:30:25.838Z,83.62
2023-10-02T21:32:53.255Z,83.59
2023-10-02T21:35:22.246Z,82.85
2023-10-02T21:37:49.328Z,83.81
2023-10-02T21:40:16.742Z,83.58
2023-10-02T21:42:43.916Z,83.76
2023-10-02T21:45:11.599Z,84.50
2023-10-02T21:47:39.016Z,84.73
2023-10-02T21:50:07.140Z,84.78
2023-10-02T21:52:40.792Z,84.16
2023-10-02T21:55:10.934Z,84.40
2023-10-02T21:57:38.315Z,84.81
2023-10-02T22:00:29.577Z,83.92
2023-10-02T22:02:56.892Z,84.51
2023-10-02T22:05:24.336Z,84.43
2023-10-02T22:07:51.586Z,84.73
2023-10-02T22:10:21.138Z,85.21
2023-10-02T22:12:48.932Z,85.54
2023-10-02T22:15:20.995Z,85.87
2023-10-02T22:17:51.847Z,84.57
2023-10-02T22:20:20.236Z,84.60
2023-10-02T22:22:48.219Z,84.82
2023-10-02T22:25:22.013Z,85.91
2023-10-02T22:27:49.651Z,86.08
2023-10-02T22:30:17.215Z,85.80
2023-10-02T22:32:44.537Z,85.70
2023-10-02T22:35:12.733Z,85.91
2023-10-02T22:37:40.478Z,84.44
2023-10-02T22:40:20.882Z,86.52
2023-10-02T22:42:53.204Z,86.68
2023-10-02T22:45:24.869Z,86.95
2023-10-02T22:47:53.927Z,87.80
2023-10-02T22:50:23.252Z,87.25
2023-10-02T22:52:51.997Z,87.32
2023-10-02T22:55:23.360Z,88.33
2023-10-02T22:57:52.444Z,87.28
2023-10-02T23:00:22.081Z,88.15
2023-10-02T23:02:51.825Z,88.13
2023-10-02T23:05:20.569Z,88.86
2023-10-02T23:07:48.848Z,89.03
2023-10-02T23:10:20.334Z,88.45
2023-10-02T23:12:54.033Z,88.45
2023-10-02T23:15:22.560Z,88.44
2023-10-02T23:17:51.782Z,89.25
2023-10-02T23:20:20.068Z,88.61
2023-10-02T23:22:49.825Z,89.24
2023-10-02T23:25:19.826Z,88.71
2023-10-02T23:27:52.647Z,88.82
2023-10-02T23:30:24.422Z,88.65
2023-10-02T23:32:56.027Z,87.86
2023-10-02T23:35:27.471Z,88.49
2023-10-02T23:37:58.367Z,88.93
2023-10-02T23:40:25.954Z,88.26
2023-10-02T23:43:00.282Z,89.36
2023-10-02T23:45:28.990Z,88.39
2023-10-02T23:48:02.210Z,89.42
2023-10-02T23:50:38.503Z,89.62
2023-10-02T23:53:09.388Z,89.70
2023-10-02T23:55:39.537Z,89.24
2023-10-02T23:58:06.763Z,88.62
